createdAt,value
2022-08-17T00:00:01.791Z,21.30
2022-08-17T00:02:56.376Z,20.16
2022-08-17T00:05:23.466Z,20.21
2022-08-17T00:07:50.456Z,19.89
2022-08-17T00:10:17.407Z,19.59
2022-08-17T00:12:44.851Z,21.24
2022-08-17T00:15:13.546Z,21.29
2022-08-17T00:17:42.512Z,21.23
2022-08-17T00:20:12.108Z,20.24
2022-08-17T00:22:39.133Z,21.40
2022-08-17T00:25:12.059Z,20.83
2022-08-17T00:27:39.550Z,21.98
2022-08-17T00:30:08.685Z,21.49
2022-08-17T00:33:14.210Z,20.99
2022-08-17T00:35:33.031Z,20.50
2022-08-17T00:38:00.039Z,20.29
2022-08-17T00:40:27.288Z,19.43
2022-08-17T00:43:28.035Z,19.97
2022-08-17T00:45:55.108Z,19.82
2022-08-17T00:48:29.371Z,20.95
2022-08-17T00:51:03.092Z,20.69
2022-08-17T00:53:33.457Z,19.72
2022-08-17T00:56:03.225Z,22.31
2022-08-17T00:58:36.564Z,21.44
2022-08-17T01:01:05.274Z,20.75
2022-08-17T01:03:33.104Z,20.10
2022-08-17T01:06:02.634Z,20.17
2022-08-17T01:08:31.385Z,21.40
2022-08-17T01:11:02.295Z,21.41
2022-08-17T01:13:41.115Z,21.22
2022-08-17T01:16:11.713Z,21.17
2022-08-17T01:18:39.288Z,23.11
2022-08-17T01:21:22.766Z,24.86
2022-08-17T01:23:49.543Z,24.63
2022-08-17T01:26:16.648Z,23.40
2022-08-17T01:28:54.652Z,24.14
2022-08-17T01:31:25.238Z,24.68
2022-08-17T01:33:52.313Z,22.17
2022-08-17T01:36:19.824Z,23.75
2022-08-17T01:38:46.683Z,22.91
2022-08-17T01:41:16.476Z,22.03
2022-08-17T01:43:52.150Z,21.31
2022-08-17T01:46:23.719Z,21.32
2022-08-17T01:48:51.704Z,21.11
2022-08-17T01:51:20.038Z,20.51
2022-08-17T01:53:54.356Z,20.50
2022-08-17T01:56:24.421Z,20.62
2022-08-17T01:58:52.551Z,20.69
2022-08-17T02:01:22.089Z,21.04
2022-08-17T02:03:53.518Z,21.82
2022-08-17T02:06:28.411Z,20.25
2022-08-17T02:09:02.954Z,21.27
2022-08-17T02:11:32.344Z,21.10
2022-08-17T02:14:03.214Z,23.76
2022-08-17T02:16:37.668Z,20.75
2022-08-17T02:19:07.573Z,20.63
2022-08-17T02:21:35.236Z,21.70
2022-08-17T02:24:03.322Z,20.81
2022-08-17T02:26:30.164Z,21.88
2022-08-17T02:28:57.040Z,21.65
2022-08-17T02:31:23.838Z,21.09
2022-08-17T02:34:00.481Z,21.37
2022-08-17T02:36:32.028Z,21.74
2022-08-17T02:39:02.121Z,20.49
2022-08-17T02:41:29.023Z,20.49
2022-08-17T02:43:55.878Z,20.29
2022-08-17T02:46:22.749Z,20.74
2022-08-17T02:48:49.663Z,23.38
2022-08-17T02:51:16.605Z,21.82
2022-08-17T02:53:43.463Z,21.62
2022-08-17T02:56:10.423Z,23.15
2022-08-17T02:58:37.457Z,23.57
2022-08-17T03:01:06.623Z,22.92
2022-08-17T03:03:34.487Z,21.67
2022-08-17T03:06:01.888Z,21.60
2022-08-17T03:08:29.302Z,21.50
2022-08-17T03:10:56.534Z,21.72
2022-08-17T03:13:23.577Z,21.01
2022-08-17T03:15:50.721Z,21.42
2022-08-17T03:18:24.896Z,21.89
2022-08-17T03:20:59.179Z,21.29
2022-08-17T03:23:27.799Z,20.88
2022-08-17T03:25:57.457Z,21.79
2022-08-17T03:28:25.674Z,22.55
2022-08-17T03:30:52.905Z,20.70
2022-08-17T03:33:20.207Z,20.89
2022-08-17T03:35:47.537Z,22.66
2022-08-17T03:38:15.828Z,20.94
2022-08-17T03:40:57.104Z,22.93
2022-08-17T03:43:28.441Z,21.05
2022-08-17T03:46:33.842Z,22.17
2022-08-17T03:49:19.507Z,21.35
2022-08-17T03:52:04.911Z,22.11
2022-08-17T03:54:50.322Z,22.63
2022-08-17T03:57:17.135Z,21.09
2022-08-17T03:59:45.183Z,22.08
2022-08-17T04:02:19.168Z,20.48
2022-08-17T04:04:46.944Z,20.16
2022-08-17T04:07:13.870Z,21.97
2022-08-17T04:09:40.767Z,20.82
2022-08-17T04:12:08.000Z,19.90
2022-08-17T04:14:52.243Z,20.17
2022-08-17T04:17:22.981Z,21.19
2022-08-17T04:19:49.763Z,21.78
2022-08-17T04:22:30.869Z,20.32
2022-08-17T04:25:03.310Z,21.12
2022-08-17T04:27:30.076Z,20.20
2022-08-17T04:29:56.945Z,20.85
2022-08-17T04:32:59.370Z,21.48
2022-08-17T04:35:10.679Z,20.67
2022-08-17T04:37:37.489Z,21.02
2022-08-17T04:40:27.201Z,20.86
2022-08-17T04:43:13.376Z,20.49
2022-08-17T04:45:55.923Z,20.21
2022-08-17T04:48:36.477Z,20.40
2022-08-17T04:51:12.365Z,21.19
2022-08-17T04:53:41.679Z,21.14
2022-08-17T04:56:11.632Z,20.54
2022-08-17T04:58:49.881Z,23.13
2022-08-17T05:01:23.295Z,21.21
2022-08-17T05:03:52.346Z,21.51
2022-08-17T05:06:19.655Z,21.72
2022-08-17T05:08:46.505Z,21.18
2022-08-17T05:11:13.282Z,20.50
2022-08-17T05:13:40.210Z,21.50
2022-08-17T05:16:09.107Z,22.76
2022-08-17T05:18:38.784Z,24.93
2022-08-17T05:21:06.937Z,23.91
2022-08-17T05:23:42.874Z,22.63
2022-08-17T05:26:25.805Z,23.11
2022-08-17T05:28:54.627Z,20.65
2022-08-17T05:31:24.617Z,20.22
2022-08-17T05:33:52.053Z,20.75
2022-08-17T05:36:43.542Z,20.58
2022-08-17T05:39:06.664Z,21.30
2022-08-17T05:41:33.641Z,22.25
2022-08-17T05:44:00.427Z,22.75
2022-08-17T05:46:39.548Z,23.26
2022-08-17T05:49:08.121Z,21.79
2022-08-17T05:51:50.056Z,21.11
2022-08-17T05:54:59.839Z,21.19
2022-08-17T05:57:54.245Z,22.14
2022-08-17T06:00:31.885Z,22.64
2022-08-17T06:03:27.350Z,22.61
2022-08-17T06:06:25.281Z,22.89
2022-08-17T06:09:35.282Z,21.28
2022-08-17T06:12:19.753Z,21.25
2022-08-17T06:14:55.885Z,19.75
2022-08-17T06:17:25.201Z,21.30
2022-08-17T06:19:59.787Z,19.80
2022-08-17T06:22:33.375Z,21.23
2022-08-17T06:25:05.114Z,19.98
2022-08-17T06:27:49.010Z,18.51
2022-08-17T06:30:57.477Z,18.20
2022-08-17T06:33:26.734Z,18.68
2022-08-17T06:36:09.846Z,18.63
2022-08-17T06:38:53.310Z,18.26
2022-08-17T06:41:29.015Z,19.22
2022-08-17T06:44:43.693Z,20.47
2022-08-17T06:47:28.578Z,20.85
2022-08-17T06:50:30.961Z,20.50
2022-08-17T06:53:04.438Z,19.99
2022-08-17T06:56:11.061Z,19.97
2022-08-17T06:58:41.696Z,18.92
2022-08-17T07:01:25.247Z,15.88
2022-08-17T07:03:59.695Z,15.31
2022-08-17T07:06:47.518Z,15.07
2022-08-17T07:09:23.451Z,16.76
2022-08-17T07:11:54.761Z,16.44
2022-08-17T07:14:36.743Z,18.66
2022-08-17T07:17:15.727Z,16.87
2022-08-17T07:19:45.725Z,16.82
2022-08-17T07:22:53.533Z,17.59
2022-08-17T07:25:26.503Z,15.74
2022-08-17T07:28:00.432Z,16.10
2022-08-17T07:30:31.651Z,17.55
2022-08-17T07:33:12.686Z,16.56
2022-08-17T07:35:44.346Z,16.12
2022-08-17T07:38:25.788Z,15.88
2022-08-17T07:41:02.785Z,16.17
2022-08-17T07:43:38.102Z,16.59
2022-08-17T07:46:37.339Z,15.46
2022-08-17T07:49:05.065Z,16.32
2022-08-17T07:51:36.409Z,15.20
2022-08-17T07:54:22.345Z,15.36
2022-08-17T07:56:50.923Z,15.23
2022-08-17T07:59:40.737Z,15.25
2022-08-17T08:02:38.893Z,15.09
2022-08-17T08:05:50.097Z,15.87
2022-08-17T08:08:24.355Z,12.74
2022-08-17T08:11:29.768Z,15.11
2022-08-17T08:14:20.671Z,14.18
2022-08-17T08:17:07.362Z,16.41
2022-08-17T08:19:36.404Z,14.96
2022-08-17T08:22:12.054Z,13.43
2022-08-17T08:24:51.447Z,15.65
2022-08-17T08:27:49.485Z,14.84
2022-08-17T08:30:21.311Z,14.93
2022-08-17T08:32:51.345Z,14.10
2022-08-17T08:35:32.434Z,14.09
2022-08-17T08:38:13.797Z,14.92
2022-08-17T08:41:01.872Z,13.40
2022-08-17T08:43:52.854Z,14.33
2022-08-17T08:46:48.300Z,14.47
2022-08-17T08:49:29.819Z,13.39
2022-08-17T08:52:25.834Z,14.14
2022-08-17T08:55:15.631Z,13.14
2022-08-17T08:57:56.985Z,13.72
2022-08-17T09:00:26.021Z,13.20
2022-08-17T09:02:58.686Z,12.87
2022-08-17T09:05:49.699Z,13.21
2022-08-17T09:08:44.084Z,15.67
2022-08-17T09:11:24.614Z,13.69
2022-08-17T09:14:00.781Z,13.27
2022-08-17T09:16:36.875Z,13.49
2022-08-17T09:19:16.082Z,13.68
2022-08-17T09:21:52.632Z,12.91
2022-08-17T09:24:31.350Z,12.92
2022-08-17T09:27:03.587Z,13.31
2022-08-17T09:29:35.292Z,13.57
2022-08-17T09:32:14.653Z,12.46
2022-08-17T09:34:51.008Z,12.36
2022-08-17T09:37:43.801Z,12.91
2022-08-17T09:40:33.731Z,14.03
2022-08-17T09:43:08.698Z,12.76
2022-08-17T09:45:39.762Z,13.21
2022-08-17T09:48:14.910Z,13.45
2022-08-17T09:51:05.666Z,12.27
2022-08-17T09:53:36.366Z,12.82
2022-08-17T09:56:10.002Z,13.19
2022-08-17T09:59:05.081Z,13.16
2022-08-17T10:01:51.630Z,11.52
2022-08-17T10:04:47.824Z,11.83
2022-08-17T10:07:31.747Z,11.16
2022-08-17T10:10:32.508Z,11.62
2022-08-17T10:13:35.849Z,12.93
2022-08-17T10:16:23.155Z,12.03
2022-08-17T10:19:08.859Z,12.97
2022-08-17T10:22:01.385Z,12.59
2022-08-17T10:25:22.183Z,13.30
2022-08-17T10:28:01.962Z,10.25
2022-08-17T10:30:33.384Z,12.66
2022-08-17T10:33:04.803Z,11.69
2022-08-17T10:35:34.039Z,11.43
2022-08-17T10:38:16.195Z,11.20
2022-08-17T10:40:59.320Z,10.95
2022-08-17T10:44:37.906Z,10.55
2022-08-17T10:47:03.241Z,13.64
2022-08-17T10:49:34.065Z,12.13
2022-08-17T10:52:22.877Z,11.45
2022-08-17T10:54:58.006Z,13.38
2022-08-17T10:57:34.646Z,13.04
2022-08-17T11:00:18.021Z,11.76
2022-08-17T11:02:55.456Z,12.44
2022-08-17T11:05:45.550Z,12.45
2022-08-17T11:08:38.859Z,12.76
2022-08-17T11:11:26.516Z,12.65
2022-08-17T11:14:15.003Z,11.96
2022-08-17T11:17:06.582Z,11.17
2022-08-17T11:19:59.259Z,11.03
2022-08-17T11:22:31.321Z,11.13
2022-08-17T11:25:20.150Z,11.39
2022-08-17T11:27:53.765Z,12.52
2022-08-17T11:30:48.935Z,12.50
2022-08-17T11:33:58.876Z,10.76
2022-08-17T11:36:37.696Z,14.17
2022-08-17T11:39:16.775Z,12.03
2022-08-17T11:41:55.754Z,9.91
2022-08-17T11:44:25.647Z,11.59
2022-08-17T11:48:09.417Z,10.85
2022-08-17T11:51:23.562Z,11.69
2022-08-17T11:53:50.263Z,10.23
2022-08-17T11:56:41.923Z,11.01
2022-08-17T11:59:30.764Z,11.03
2022-08-17T12:01:57.758Z,10.97
2022-08-17T12:04:31.900Z,11.55
2022-08-17T12:07:13.261Z,10.91
2022-08-17T12:09:45.706Z,11.06
2022-08-17T12:12:20.354Z,10.25
2022-08-17T12:15:11.412Z,11.43
2022-08-17T12:17:40.767Z,11.08
2022-08-17T12:20:23.527Z,11.87
2022-08-17T12:23:01.231Z,12.37
2022-08-17T12:25:42.560Z,12.13
2022-08-17T12:28:26.315Z,10.52
2022-08-17T12:30:53.721Z,11.13
2022-08-17T12:33:28.655Z,10.39
2022-08-17T12:36:03.312Z,11.13
2022-08-17T12:38:36.194Z,9.79
2022-08-17T12:41:24.206Z,10.51
2022-08-17T12:44:22.305Z,12.22
2022-08-17T12:47:02.145Z,11.22
2022-08-17T12:49:32.913Z,10.85
2022-08-17T12:52:12.477Z,11.25
2022-08-17T12:54:46.939Z,10.93
2022-08-17T12:57:24.264Z,10.28
2022-08-17T12:59:59.115Z,11.03
2022-08-17T13:02:39.753Z,10.52
2022-08-17T13:05:14.569Z,10.02
2022-08-17T13:07:42.779Z,9.57
2022-08-17T13:10:19.269Z,9.77
2022-08-17T13:12:46.240Z,9.70
2022-08-17T13:15:21.647Z,9.46
2022-08-17T13:18:04.745Z,10.94
2022-08-17T13:20:31.919Z,10.39
2022-08-17T13:23:01.354Z,10.01
2022-08-17T13:25:29.757Z,9.54
2022-08-17T13:27:56.812Z,9.91
2022-08-17T13:30:33.301Z,10.42
2022-08-17T13:33:20.729Z,9.71
2022-08-17T13:36:07.198Z,9.90
2022-08-17T13:38:49.760Z,9.46
2022-08-17T13:41:37.802Z,10.96
2022-08-17T13:44:31.074Z,10.11
2022-08-17T13:46:59.658Z,10.73
2022-08-17T13:49:33.894Z,9.33
2022-08-17T13:52:52.299Z,10.67
2022-08-17T13:55:22.704Z,12.68
2022-08-17T13:58:03.630Z,12.09
2022-08-17T14:00:36.441Z,10.96
2022-08-17T14:03:05.608Z,12.85
2022-08-17T14:05:33.884Z,10.93
2022-08-17T14:08:06.683Z,11.37
2022-08-17T14:10:36.465Z,10.98
2022-08-17T14:13:04.412Z,11.54
2022-08-17T14:15:56.041Z,10.29
2022-08-17T14:18:37.509Z,11.87
2022-08-17T14:21:08.470Z,11.08
2022-08-17T14:23:36.709Z,11.23
2022-08-17T14:26:04.671Z,11.49
2022-08-17T14:28:32.157Z,10.64
2022-08-17T14:31:00.785Z,13.67
2022-08-17T14:33:28.834Z,11.92
2022-08-17T14:35:55.950Z,11.58
2022-08-17T14:38:22.805Z,12.32
2022-08-17T14:40:49.945Z,11.94
2022-08-17T14:43:18.000Z,11.18
2022-08-17T14:45:44.893Z,12.18
2022-08-17T14:48:12.094Z,12.42
2022-08-17T14:50:42.211Z,12.54
2022-08-17T14:53:11.575Z,12.99
2022-08-17T14:55:40.792Z,12.09
2022-08-17T14:58:08.819Z,12.43
2022-08-17T15:00:35.809Z,12.60
2022-08-17T15:03:03.424Z,13.70
2022-08-17T15:05:36.731Z,13.38
2022-08-17T15:08:05.631Z,13.07
2022-08-17T15:10:33.269Z,12.25
2022-08-17T15:13:00.565Z,12.03
2022-08-17T15:15:28.564Z,12.20
2022-08-17T15:17:55.835Z,11.59
2022-08-17T15:20:28.130Z,11.64
2022-08-17T15:22:57.592Z,13.28
2022-08-17T15:25:30.294Z,12.59
2022-08-17T15:27:57.445Z,12.12
2022-08-17T15:30:26.046Z,12.25
2022-08-17T15:32:55.175Z,12.93
2022-08-17T15:35:27.737Z,13.51
2022-08-17T15:38:11.680Z,13.55
2022-08-17T15:40:42.762Z,13.69
2022-08-17T15:43:27.278Z,13.61
2022-08-17T15:46:01.944Z,12.56
2022-08-17T15:48:41.479Z,12.47
2022-08-17T15:51:11.356Z,12.17
2022-08-17T15:53:40.135Z,13.03
2022-08-17T15:56:07.256Z,13.13
2022-08-17T15:58:35.567Z,14.31
2022-08-17T16:01:14.869Z,13.48
2022-08-17T16:04:03.924Z,13.39
2022-08-17T16:06:32.325Z,14.63
2022-08-17T16:09:00.455Z,13.50
2022-08-17T16:11:27.281Z,13.45
2022-08-17T16:13:55.100Z,13.34
2022-08-17T16:16:23.776Z,14.02
2022-08-17T16:18:54.748Z,14.74
2022-08-17T16:21:27.077Z,13.81
2022-08-17T16:24:00.801Z,14.32
2022-08-17T16:26:29.724Z,13.05
2022-08-17T16:28:59.112Z,13.22
2022-08-17T16:31:26.131Z,12.63
2022-08-17T16:34:03.768Z,13.90
2022-08-17T16:36:41.527Z,13.62
2022-08-17T16:39:20.813Z,13.06
2022-08-17T16:41:47.718Z,13.00
2022-08-17T16:44:19.117Z,13.01
2022-08-17T16:46:48.217Z,12.92
2022-08-17T16:49:34.453Z,12.93
2022-08-17T16:52:07.192Z,14.63
2022-08-17T16:54:35.453Z,14.11
2022-08-17T16:57:05.141Z,14.51
2022-08-17T16:59:41.840Z,14.40
2022-08-17T17:02:16.975Z,12.94
2022-08-17T17:04:53.356Z,13.65
2022-08-17T17:07:32.282Z,13.67
2022-08-17T17:09:59.969Z,13.57
2022-08-17T17:13:01.273Z,13.28
2022-08-17T17:15:21.975Z,13.28
2022-08-17T17:17:50.609Z,13.77
2022-08-17T17:20:29.013Z,13.37
2022-08-17T17:23:19.128Z,13.43
2022-08-17T17:26:32.283Z,13.98
2022-08-17T17:29:11.058Z,13.54
2022-08-17T17:31:55.025Z,13.12
2022-08-17T17:34:22.836Z,13.23
2022-08-17T17:36:54.163Z,14.57
2022-08-17T17:39:29.696Z,13.18
2022-08-17T17:41:59.621Z,14.35
2022-08-17T17:44:33.162Z,13.24
2022-08-17T17:47:03.384Z,14.06
2022-08-17T17:49:35.179Z,14.01
2022-08-17T17:52:26.123Z,14.17
2022-08-17T17:55:16.813Z,13.89
2022-08-17T17:57:58.910Z,13.38
2022-08-17T18:00:30.585Z,13.36
2022-08-17T18:03:31.170Z,13.29
2022-08-17T18:06:22.802Z,13.17
2022-08-17T18:09:10.369Z,12.93
2022-08-17T18:12:00.644Z,12.63
2022-08-17T18:15:01.699Z,12.89
2022-08-17T18:17:29.908Z,13.87
2022-08-17T18:19:57.434Z,14.06
2022-08-17T18:22:25.342Z,14.11
2022-08-17T18:24:58.111Z,14.28
2022-08-17T18:27:33.714Z,15.41
2022-08-17T18:30:21.867Z,16.21
2022-08-17T18:32:48.730Z,17.06
2022-08-17T18:35:18.554Z,16.38
2022-08-17T18:37:49.956Z,16.34
2022-08-17T18:40:17.084Z,15.57
2022-08-17T18:42:50.618Z,15.71
2022-08-17T18:45:38.944Z,15.21
2022-08-17T18:48:17.999Z,16.24
2022-08-17T18:50:45.282Z,16.31
2022-08-17T18:53:26.783Z,16.04
2022-08-17T18:56:16.946Z,17.35
2022-08-17T18:58:52.158Z,16.89
2022-08-17T19:01:21.733Z,17.09
2022-08-17T19:04:15.710Z,16.98
2022-08-17T19:06:42.981Z,16.94
2022-08-17T19:09:33.945Z,16.09
2022-08-17T19:12:08.422Z,17.11
2022-08-17T19:14:36.003Z,16.37
2022-08-17T19:17:16.543Z,16.11
2022-08-17T19:19:56.279Z,15.89
2022-08-17T19:23:02.269Z,16.61
2022-08-17T19:25:36.309Z,16.24
2022-08-17T19:28:12.683Z,15.84
2022-08-17T19:30:54.740Z,15.79
2022-08-17T19:33:22.039Z,15.51
2022-08-17T19:36:01.215Z,16.56
2022-08-17T19:38:46.780Z,16.29
2022-08-17T19:41:28.244Z,16.61
2022-08-17T19:43:57.932Z,16.29
2022-08-17T19:46:48.715Z,16.60
2022-08-17T19:49:33.537Z,16.16
2022-08-17T19:52:24.376Z,16.75
2022-08-17T19:54:57.092Z,16.39
2022-08-17T19:57:43.988Z,16.89
2022-08-17T20:00:15.536Z,17.55
2022-08-17T20:03:16.672Z,17.33
2022-08-17T20:06:11.951Z,16.87
2022-08-17T20:08:49.013Z,16.84
2022-08-17T20:11:21.184Z,16.31
2022-08-17T20:13:56.224Z,16.89
2022-08-17T20:16:24.675Z,16.62
2022-08-17T20:19:19.334Z,16.33
2022-08-17T20:21:48.738Z,15.78
2022-08-17T20:24:22.910Z,15.79
2022-08-17T20:26:58.703Z,16.13
2022-08-17T20:29:55.175Z,16.51
2022-08-17T20:32:26.900Z,15.49
2022-08-17T20:35:09.074Z,16.61
2022-08-17T20:37:43.222Z,16.00
2022-08-17T20:40:10.050Z,16.22
2022-08-17T20:42:37.257Z,16.03
2022-08-17T20:45:23.374Z,17.59
2022-08-17T20:48:27.232Z,16.54
2022-08-17T20:50:52.731Z,17.74
2022-08-17T20:53:47.585Z,17.10
2022-08-17T20:56:43.494Z,17.00
2022-08-17T20:59:25.593Z,16.77
2022-08-17T21:02:17.548Z,16.54
2022-08-17T21:04:46.428Z,16.61
2022-08-17T21:07:43.010Z,15.29
2022-08-17T21:10:13.979Z,16.92
2022-08-17T21:12:44.447Z,16.36
2022-08-17T21:15:48.628Z,17.47
2022-08-17T21:18:38.813Z,18.12
2022-08-17T21:21:08.242Z,17.02
2022-08-17T21:24:14.777Z,16.31
2022-08-17T21:27:06.567Z,17.21
2022-08-17T21:29:39.683Z,16.73
2022-08-17T21:32:09.030Z,16.30
2022-08-17T21:34:43.256Z,16.55
2022-08-17T21:37:18.893Z,16.58
2022-08-17T21:39:51.963Z,16.48
2022-08-17T21:42:25.715Z,16.42
2022-08-17T21:44:58.048Z,16.94
2022-08-17T21:47:28.233Z,16.96
2022-08-17T21:50:13.219Z,16.07
2022-08-17T21:52:40.563Z,16.45
2022-08-17T21:55:17.867Z,16.53
2022-08-17T21:57:53.052Z,16.18
2022-08-17T22:00:33.073Z,16.07
2022-08-17T22:03:07.024Z,16.17
2022-08-17T22:05:39.931Z,16.24
2022-08-17T22:08:19.615Z,16.69
2022-08-17T22:10:49.132Z,16.69
2022-08-17T22:13:19.744Z,16.65
2022-08-17T22:15:49.782Z,17.01
2022-08-17T22:18:25.515Z,16.90
2022-08-17T22:20:56.469Z,17.76
2022-08-17T22:23:44.233Z,17.21
2022-08-17T22:26:14.083Z,17.93
2022-08-17T22:28:46.227Z,17.63
2022-08-17T22:31:24.785Z,16.62
2022-08-17T22:34:09.776Z,17.15
2022-08-17T22:36:38.835Z,19.22
2022-08-17T22:39:11.551Z,18.89
2022-08-17T22:41:50.573Z,19.39
2022-08-17T22:44:23.505Z,18.67
2022-08-17T22:46:58.748Z,18.27
2022-08-17T22:49:54.017Z,21.58
2022-08-17T22:52:56.068Z,21.35
2022-08-17T22:55:42.424Z,22.34
2022-08-17T22:58:37.252Z,22.54
2022-08-17T23:01:25.614Z,21.69
2022-08-17T23:03:56.882Z,22.66
2022-08-17T23:06:24.415Z,22.48
2022-08-17T23:08:56.827Z,22.48
2022-08-17T23:11:47.814Z,21.99
2022-08-17T23:14:15.735Z,21.69
2022-08-17T23:16:42.739Z,22.62
2022-08-17T23:19:12.369Z,22.46
2022-08-17T23:21:39.737Z,21.95
2022-08-17T23:24:08.933Z,23.28
2022-08-17T23:26:43.764Z,21.27
2022-08-17T23:29:11.146Z,23.29
2022-08-17T23:31:40.954Z,21.87
2022-08-17T23:34:11.793Z,23.16
2022-08-17T23:36:38.944Z,21.79
2022-08-17T23:39:07.063Z,22.39
2022-08-17T23:41:39.956Z,22.43
2022-08-17T23:44:07.721Z,21.99
2022-08-17T23:46:35.019Z,25.13
2022-08-17T23:49:02.007Z,23.50
2022-08-17T23:51:34.656Z,24.13
2022-08-17T23:54:11.713Z,23.90
2022-08-17T23:56:56.511Z,22.57
2022-08-17T23:59:23.757Z,22.39
